Weather at São João do Piauí Airport

Public forecast

Using degrees Celsius for public forecast. Weather courtesy of forecast.io.

Closest aviation weather report (METAR) to São João do Piauí Airport

Closest report is Senador Nilo Coelho Airport, 115.4 nm (213.6 km) ESE.

2024/06/23 04:00 (retrieved 12 minutes ago)

SBPL 230400Z 16007KT 9999 SCT020 OVC070 25/19 Q1016

Closest aviation forecast (TAF) to São João do Piauí Airport

Forecast is more than 6 hours old.

Closest forecast is Francisco Carle Airport, 1,973.4 nm (3,654.8 km) W.

2024/06/22 18:00 Correction (retrieved 10 hours ago)

TAF COR SPJJ 221720Z 2218/2318 33003KT 9999 FEW040 TX19/2219Z TNM01/2311Z TEMPO 2218/2222 27010KT